Cincinnati, OH

11:19 AM EDT on July 27, 2016 (GMT -0400)
Newport Aquarium | | Change Station

Elev 499 ft 39.09 °N, 84.50 °W | Updated 1 minute ago

Scattered Clouds
Scattered Clouds
84.3 °F
Feels Like 90 °F
N
0.0
Wind Variable Wind from ESE
Gusts 5.0 mph

Today
High -- | Low -- °F
--% Chance of Precip.
Yesterday
High -- | Low -- °F
Precip. -- in
Pressure 30.00 in
Visibility 8.0 miles
Clouds Scattered Clouds 3700 ft
Scattered Clouds 5000 ft
Heat Index 90 °F
Dew Point 71 °F
Humidity 65%
Rainfall 0.00 in
Snow Depth Not available.
6:34 AM 8:53 PM
Last Quarter, 42% visible
METAR KLUK 271453Z 10003KT 8SM SCT037 SCT050 28/25 A3001 RMK AO2 SLP158 T02780250 58003
Pressure 30.00 in
Visibility 8.0 miles
Clouds Scattered Clouds 3700 ft
Scattered Clouds 5000 ft
Heat Index 90 °F
Dew Point 71 °F
Humidity 65%
Rainfall 0.00 in
Snow Depth Not available.
6:34 AM 8:53 PM
Last Quarter, 42% visible
METAR KLUK 271453Z 10003KT 8SM SCT037 SCT050 28/25 A3001 RMK AO2 SLP158 T02780250 58003

10-Day Weather Forecast

Almanac

Astronomy

Jul. 27, 2016 Rise Set
Actual Time
Civil Twilight
Nautical Twilight
Astronomical Twilight
Moon
Length of Visible Light
Length of Day
Tomorrow will be .
, % of the Moon is Illuminated

Today's Extremes

State Highs State Lows

Community

WunderPhotos

Upload Photos

1,927,858 photos uploaded!

WunderBlog® & News

Nearby

Air Quality

  Air Quality AQ Index Pollutant
Not available.

Snow Depth

Station Depth Elevation

Earthquake Activity

City Distance Mag. Time & Date
Minimum magnitude displayed is 2.5.

Coastal Water Temperatures

Place Temperature

Stations

Nearby Weather Stations

Station Location Temp. Windchill Dew Point Humidity Wind Precip. Elev Updated Type
                   

Watches & Warnings

There are currently no watches in effect.